Time;durP1;ratioP1;P1;durP2;ratioP2;P2;SDS_P1;SDS_P2;PMS_P1;PMS_P2;Temp;Humidity;BMP_temperature;BMP_pressure;BME280_temperature;BME280_humidity;BME280_pressure;Samples;Min_cycle;Max_cycle;Signal;HPM_P1;HPM_P2
2022/08/17 00:01:07;;;;;;;15.30;12.80;;;;;;;19.50;82.42;97875.29;106315;1277;138945;-80
2022/08/17 00:03:40;;;;;;;16.10;12.20;;;;;;;19.47;82.55;97872.34;106477;1277;22585;-79
2022/08/17 00:06:14;;;;;;;15.00;12.70;;;;;;;19.41;82.52;97868.30;106281;1277;138800;-79
2022/08/17 00:09:00;;;;;;;18.10;12.70;;;;;;;19.38;82.66;97867.83;106303;1277;24431;-79
2022/08/17 00:11:38;;;;;;;15.40;13.20;;;;;;;19.35;82.95;97866.34;106131;1277;23996;-79
2022/08/17 00:14:11;;;;;;;17.30;13.90;;;;;;;19.34;83.10;97865.79;106089;1277;138760;-79
2022/08/17 00:16:42;;;;;;;18.30;13.40;;;;;;;19.32;83.35;97864.52;106517;1277;24306;-79
2022/08/17 00:19:12;;;;;;;16.40;14.20;;;;;;;19.29;83.74;97858.71;106282;1277;139004;-79
2022/08/17 00:21:43;;;;;;;19.00;13.50;;;;;;;19.29;83.84;97852.61;106440;1277;22598;-79
2022/08/17 00:24:10;;;;;;;17.20;13.70;;;;;;;19.28;83.95;97849.98;106283;1277;139315;-79
2022/08/17 00:26:37;;;;;;;19.80;14.50;;;;;;;19.28;84.03;97851.20;106348;1277;22566;-79
2022/08/17 00:29:06;;;;;;;18.80;14.60;;;;;;;19.28;84.28;97848.92;106150;1277;22565;-79
2022/08/17 00:31:34;;;;;;;19.10;13.30;;;;;;;19.29;84.32;97855.30;106150;1277;139230;-79
2022/08/17 00:34:02;;;;;;;22.50;14.90;;;;;;;19.29;84.30;97856.08;106657;1277;22836;-80
2022/08/17 00:36:28;;;;;;;21.00;14.80;;;;;;;19.28;84.37;97860.14;106533;1277;139728;-79
2022/08/17 00:38:55;;;;;;;17.70;14.30;;;;;;;19.28;84.44;97859.33;106416;1277;22541;-79
2022/08/17 00:41:26;;;;;;;19.30;14.40;;;;;;;19.27;84.62;97859.84;106347;1277;22694;-79
2022/08/17 00:44:00;;;;;;;24.00;15.20;;;;;;;19.26;84.81;97861.20;106458;1277;139596;-79
2022/08/17 00:46:34;;;;;;;19.50;14.50;;;;;;;19.25;84.75;97864.38;106212;1277;22637;-79
2022/08/17 00:49:02;;;;;;;16.80;14.60;;;;;;;19.19;84.96;97864.73;106265;1277;139573;-79
2022/08/17 00:51:28;;;;;;;20.10;14.20;;;;;;;19.12;85.24;97862.98;105999;1277;24374;-79
2022/08/17 00:54:21;;;;;;;17.70;14.90;;;;;;;19.08;85.35;97859.55;106397;1277;22587;-79
2022/08/17 00:56:52;;;;;;;20.40;15.80;;;;;;;19.09;85.54;97864.45;106289;1277;22989;-79
2022/08/17 00:59:22;;;;;;;20.80;14.70;;;;;;;19.08;85.43;97866.23;106569;1277;25327;-79
2022/08/17 01:01:50;;;;;;;20.30;14.50;;;;;;;19.04;85.24;97870.80;106705;1277;138667;-80
2022/08/17 01:04:19;;;;;;;18.20;14.10;;;;;;;19.00;85.23;97867.45;106968;1276;22891;-80
2022/08/17 01:06:48;;;;;;;17.10;14.00;;;;;;;18.99;85.27;97867.17;106404;1277;138769;-79
2022/08/17 01:09:16;;;;;;;19.40;14.00;;;;;;;18.98;85.32;97868.70;106430;1277;22556;-80
2022/08/17 01:11:50;;;;;;;16.40;13.50;;;;;;;18.98;85.41;97870.59;106288;1277;25264;-79
2022/08/17 01:14:23;;;;;;;17.60;13.30;;;;;;;19.00;85.43;97867.77;106335;1277;138582;-80
2022/08/17 01:16:53;;;;;;;17.50;14.20;;;;;;;19.01;85.36;97865.66;106341;1277;25442;-79
2022/08/17 01:19:28;;;;;;;17.40;14.30;;;;;;;19.00;85.24;97867.16;106213;1277;138880;-79
2022/08/17 01:22:08;;;;;;;18.80;13.50;;;;;;;19.00;85.33;97866.56;106660;1277;24310;-79
2022/08/17 01:24:37;;;;;;;20.00;14.50;;;;;;;18.97;85.38;97859.77;106242;1277;139033;-79
2022/08/17 01:27:05;;;;;;;19.60;13.70;;;;;;;18.95;85.35;97857.61;106261;1277;22689;-79
2022/08/17 01:29:32;;;;;;;19.10;14.70;;;;;;;18.91;85.39;97853.98;106187;1277;22580;-80
2022/08/17 01:32:04;;;;;;;16.80;13.70;;;;;;;18.84;85.67;97854.26;106060;1277;139418;-80
2022/08/17 01:34:31;;;;;;;19.70;14.80;;;;;;;18.78;85.88;97852.10;106448;1277;22566;-81
2022/08/17 01:36:58;;;;;;;17.10;14.30;;;;;;;18.74;85.99;97848.73;106492;1277;138640;-80
2022/08/17 01:39:35;;;;;;;17.90;14.10;;;;;;;18.71;86.30;97848.36;106175;1277;22572;-80
2022/08/17 01:42:29;;;;;;;17.10;13.90;;;;;;;18.70;86.37;97849.81;106733;1277;23474;-80
2022/08/17 01:45:00;;;;;;;18.50;14.20;;;;;;;18.71;86.42;97851.80;106765;1277;22574;-80
2022/08/17 01:47:27;;;;;;;15.70;14.10;;;;;;;18.73;86.53;97855.61;106461;1277;22612;-79
2022/08/17 01:49:55;;;;;;;16.30;13.60;;;;;;;18.74;86.49;97857.66;106519;1277;138974;-79
2022/08/17 01:52:22;;;;;;;17.30;14.10;;;;;;;18.75;86.41;97859.14;106856;1277;22541;-80
2022/08/17 01:54:50;;;;;;;20.60;15.50;;;;;;;18.76;86.47;97858.39;106470;1277;139266;-79
2022/08/17 01:57:16;;;;;;;19.80;13.90;;;;;;;18.79;86.67;97857.51;106607;1277;25605;-79
2022/08/17 01:59:43;;;;;;;21.50;13.90;;;;;;;18.79;86.48;97860.68;106769;1277;22707;-80
2022/08/17 02:02:10;;;;;;;17.40;14.10;;;;;;;18.80;86.53;97862.99;106731;1277;138633;-80
2022/08/17 02:04:36;;;;;;;16.30;13.70;;;;;;;18.79;86.17;97861.14;106513;1277;22545;-80
2022/08/17 02:07:03;;;;;;;17.70;13.40;;;;;;;18.78;85.78;97862.80;106613;1277;139133;-80
2022/08/17 02:09:29;;;;;;;15.40;12.00;;;;;;;18.74;85.60;97863.80;106593;1277;24428;-80
2022/08/17 02:11:58;;;;;;;18.10;13.00;;;;;;;18.70;85.36;97867.59;106496;1277;25274;-79
2022/08/17 02:14:25;;;;;;;14.60;12.80;;;;;;;18.69;85.57;97868.78;106217;1277;138254;-81
2022/08/17 02:16:53;;;;;;;15.60;12.80;;;;;;;18.66;85.37;97870.16;106567;1277;23354;-82
2022/08/17 02:19:20;;;;;;;15.60;12.20;;;;;;;18.62;85.43;97870.81;106437;1277;139189;-80
2022/08/17 02:21:50;;;;;;;13.70;12.00;;;;;;;18.59;85.32;97875.19;106594;1277;25435;-81
2022/08/17 02:24:22;;;;;;;20.50;13.80;;;;;;;18.55;85.33;97878.41;106582;1277;139647;-80
2022/08/17 02:26:48;;;;;;;20.70;14.70;;;;;;;18.53;85.68;97880.73;106705;1277;25620;-80
2022/08/17 02:29:15;;;;;;;21.40;14.60;;;;;;;18.54;85.92;97879.27;106480;1277;24485;-80
2022/08/17 02:31:43;;;;;;;16.10;13.60;;;;;;;18.53;85.83;97878.27;106480;1277;138726;-80
2022/08/17 02:34:09;;;;;;;20.30;14.80;;;;;;;18.51;85.77;97884.77;106633;1277;22699;-80
2022/08/17 02:36:36;;;;;;;19.30;14.90;;;;;;;18.49;85.85;97885.68;106343;1277;138768;-80
2022/08/17 02:39:06;;;;;;;21.70;14.80;;;;;;;18.47;86.01;97884.89;106567;1277;22560;-80
2022/08/17 02:41:32;;;;;;;18.10;15.20;;;;;;;18.47;86.18;97892.11;106431;1277;22581;-80
2022/08/17 02:43:59;;;;;;;22.30;14.70;;;;;;;18.44;86.00;97890.88;106211;1277;138534;-80
2022/08/17 02:46:27;;;;;;;20.80;14.10;;;;;;;18.43;86.04;97889.52;106663;1277;22609;-79
2022/08/17 02:48:53;;;;;;;18.40;14.10;;;;;;;18.40;86.04;97886.33;106750;1276;139078;-80
2022/08/17 02:51:19;;;;;;;17.60;14.70;;;;;;;18.38;86.00;97890.98;106744;1277;24252;-80
2022/08/17 02:53:46;;;;;;;17.60;14.90;;;;;;;18.37;85.99;97889.70;106559;1277;22568;-80
2022/08/17 02:56:12;;;;;;;22.00;14.70;;;;;;;18.35;86.02;97887.94;106669;1277;138633;-82
2022/08/17 02:58:39;;;;;;;17.60;15.30;;;;;;;18.32;86.21;97887.48;106511;1277;22608;-80
2022/08/17 03:01:07;;;;;;;19.50;15.10;;;;;;;18.31;86.36;97890.09;106948;1277;139155;-80
2022/08/17 03:03:35;;;;;;;22.80;15.90;;;;;;;18.30;86.46;97886.33;106585;1277;22605;-81
2022/08/17 03:06:03;;;;;;;18.10;15.10;;;;;;;18.29;86.60;97885.90;106438;1277;25362;-80
2022/08/17 03:08:30;;;;;;;20.00;14.90;;;;;;;18.29;86.52;97881.56;106567;1277;22560;-80
2022/08/17 03:10:56;;;;;;;18.30;14.90;;;;;;;18.26;86.46;97881.02;106806;1276;22672;-80
2022/08/17 03:13:23;;;;;;;20.60;15.90;;;;;;;18.25;86.46;97880.44;106608;1277;139088;-80
2022/08/17 03:15:50;;;;;;;21.20;15.90;;;;;;;18.22;86.69;97878.90;106514;1277;23849;-80
2022/08/17 03:18:19;;;;;;;23.00;15.50;;;;;;;18.22;86.79;97878.56;106479;1277;139242;-80
2022/08/17 03:20:45;;;;;;;19.80;15.00;;;;;;;18.20;86.76;97887.86;106462;1277;22547;-80
2022/08/17 03:23:12;;;;;;;17.70;13.40;;;;;;;18.14;86.38;97888.98;106591;1277;22627;-80
2022/08/17 03:25:41;;;;;;;15.60;13.70;;;;;;;18.05;86.43;97892.14;106500;1277;138666;-80
2022/08/17 03:28:10;;;;;;;;;;;;;;;17.96;86.45;97894.22;106576;1277;22525;-80
2022/08/17 03:30:37;;;;;;;17.90;13.40;;;;;;;17.84;86.81;97890.04;106270;1277;125145;-81
2022/08/17 03:33:09;;;;;;;16.70;14.20;;;;;;;17.79;87.38;97888.02;106556;1274;22560;-80
2022/08/17 03:35:39;;;;;;;18.20;13.90;;;;;;;17.77;87.70;97887.30;106496;1277;22698;-80
2022/08/17 03:38:10;;;;;;;19.40;14.60;;;;;;;17.73;87.74;97888.41;106694;1277;139052;-81
2022/08/17 03:40:38;;;;;;;22.90;16.80;;;;;;;17.71;88.02;97888.30;106867;1274;22540;-80
2022/08/17 03:43:07;;;;;;;17.60;15.50;;;;;;;17.69;88.44;97894.17;106367;1274;138911;-81
2022/08/17 03:56:41;;;;;;;25.50;18.60;;;;;;;17.71;89.43;97902.95;106235;1276;22549;-80
2022/08/17 03:59:15;;;;;;;25.40;19.20;;;;;;;17.73;89.53;97904.20;106324;1276;22640;-81
2022/08/17 04:01:43;;;;;;;27.40;19.50;;;;;;;17.75;89.73;97907.61;106666;1276;139392;-80
2022/08/17 04:04:11;;;;;;;23.70;19.10;;;;;;;17.76;89.86;97909.36;106743;1276;26481;-81
2022/08/17 04:06:39;;;;;;;21.80;17.60;;;;;;;17.79;89.92;97911.50;106474;1277;138743;-80
2022/08/17 04:09:06;;;;;;;30.00;20.20;;;;;;;17.83;90.04;97917.54;106973;1277;22733;-81
2022/08/17 04:11:33;;;;;;;25.50;17.70;;;;;;;17.87;89.84;97919.27;106482;1277;22596;-80
2022/08/17 04:14:01;;;;;;;28.50;20.50;;;;;;;17.90;89.89;97923.48;106345;1277;138902;-80
2022/08/17 04:16:28;;;;;;;28.60;19.70;;;;;;;17.93;89.82;97922.48;106651;1277;22764;-80
2022/08/17 04:18:54;;;;;;;28.70;19.80;;;;;;;17.97;89.84;97922.48;106247;1277;139296;-80
2022/08/17 04:21:22;;;;;;;27.60;19.70;;;;;;;18.02;89.78;97922.31;105257;1277;1585285;-79
2022/08/17 04:23:49;;;;;;;27.40;20.50;;;;;;;18.05;89.79;97923.61;106590;1277;22642;-80
2022/08/17 04:26:16;;;;;;;26.70;20.20;;;;;;;18.08;89.73;97923.62;106564;1274;139554;-80
2022/08/17 04:28:44;;;;;;;27.10;20.30;;;;;;;18.10;89.60;97919.45;106439;1277;23636;-82
2022/08/17 04:31:12;;;;;;;29.30;20.90;;;;;;;18.11;89.75;97923.66;106659;1274;138908;-81
2022/08/17 04:33:42;;;;;;;26.40;19.60;;;;;;;18.14;89.75;97920.13;106876;1274;22634;-82
2022/08/17 04:36:11;;;;;;;23.30;18.80;;;;;;;18.17;89.73;97915.06;106490;1277;139073;-80
2022/08/17 04:38:39;;;;;;;27.80;19.90;;;;;;;18.19;89.59;97917.00;106642;1277;22608;-80
2022/08/17 04:43:53;;;;;;;28.20;21.10;;;;;;;18.21;89.46;97921.58;106293;1277;138498;-80
2022/08/17 04:46:23;;;;;;;29.40;22.40;;;;;;;18.21;89.41;97924.66;106780;1274;23009;-80
2022/08/17 04:48:52;;;;;;;28.20;21.30;;;;;;;18.21;89.53;97931.51;106342;1276;138537;-80
2022/08/17 04:51:43;;;;;;;30.80;22.50;;;;;;;18.21;89.41;97934.86;106603;1276;22548;-80
2022/08/17 04:54:19;;;;;;;28.10;22.40;;;;;;;18.23;89.53;97934.88;106745;1275;140482;-80
2022/08/17 04:56:46;;;;;;;31.30;24.00;;;;;;;18.26;89.61;97939.01;106895;1274;30803;-81
2022/08/17 04:59:17;;;;;;;32.00;23.10;;;;;;;18.29;89.71;97931.61;106776;1277;22304;-80
2022/08/17 05:01:45;;;;;;;30.90;23.10;;;;;;;18.33;89.75;97928.16;106292;1277;138855;-82
2022/08/17 05:04:16;;;;;;;29.50;23.00;;;;;;;18.37;89.87;97926.81;106825;1277;25250;-82
2022/08/17 05:06:43;;;;;;;33.50;22.90;;;;;;;18.42;89.91;97928.24;106391;1276;138808;-80
2022/08/17 05:09:11;;;;;;;29.90;22.60;;;;;;;18.47;89.92;97927.86;106628;1276;24414;-80
2022/08/17 05:11:38;;;;;;;31.00;22.70;;;;;;;18.53;89.91;97934.62;106581;1276;22858;-80
2022/08/17 05:14:04;;;;;;;30.60;22.90;;;;;;;18.59;89.92;97937.73;106421;1276;139203;-80
2022/08/17 05:16:31;;;;;;;30.90;23.10;;;;;;;18.66;89.97;97933.88;106638;1276;25338;-81
2022/08/17 05:18:58;;;;;;;32.30;23.90;;;;;;;18.71;89.85;97939.05;106351;1277;138697;-80
2022/08/17 05:21:25;;;;;;;29.60;23.10;;;;;;;18.76;89.83;97945.01;106406;1277;22556;-80
2022/08/17 05:23:52;;;;;;;33.30;24.30;;;;;;;18.81;89.75;97947.50;106507;1277;25300;-81
2022/08/17 05:26:21;;;;;;;33.00;24.50;;;;;;;18.86;89.79;97946.14;106853;1274;138811;-81
2022/08/17 05:28:49;;;;;;;35.40;25.30;;;;;;;18.91;89.83;97951.14;106706;1274;22605;-80
2022/08/17 05:31:16;;;;;;;36.50;26.50;;;;;;;18.96;89.79;97945.52;106565;1277;139017;-80
2022/08/17 05:33:43;;;;;;;36.50;26.20;;;;;;;19.00;89.76;97946.75;106627;1277;24338;-81
2022/08/17 05:36:13;;;;;;;40.70;26.50;;;;;;;19.04;89.69;97951.79;106619;1277;139648;-82
2022/08/17 05:38:39;;;;;;;35.30;26.30;;;;;;;19.07;89.55;97950.65;106489;1277;22603;-80
2022/08/17 05:41:09;;;;;;;32.90;26.60;;;;;;;19.12;89.67;97951.06;106623;1277;23102;-80
2022/08/17 05:43:39;;;;;;;29.10;23.60;;;;;;;19.21;89.75;97955.74;106443;1277;138752;-80
2022/08/17 05:46:25;;;;;;;29.60;24.30;;;;;;;19.26;89.44;97959.73;106765;1277;22563;-81
2022/08/17 05:48:58;;;;;;;34.30;24.50;;;;;;;19.32;89.38;97957.66;106803;1277;138606;-80
2022/08/17 05:51:32;;;;;;;32.90;24.20;;;;;;;19.37;89.24;97956.15;106483;1276;22604;-80
2022/08/17 05:54:25;;;;;;;29.90;23.90;;;;;;;19.44;89.30;97954.10;106267;1279;22573;-81
2022/08/17 05:57:31;;;;;;;34.90;25.10;;;;;;;19.51;89.31;97952.58;107042;1276;22573;-80
2022/08/17 06:00:14;;;;;;;33.50;23.50;;;;;;;19.60;89.20;97955.63;106522;1277;22629;-80
2022/08/17 06:02:56;;;;;;;36.00;25.20;;;;;;;19.68;89.02;97954.95;106372;1277;23295;-81
2022/08/17 06:05:23;;;;;;;32.70;23.30;;;;;;;19.77;88.83;97957.36;106469;1277;24089;-79
2022/08/17 06:08:07;;;;;;;32.90;24.80;;;;;;;19.85;88.73;97953.61;106128;1278;139170;-79
2022/08/17 06:10:59;;;;;;;33.90;24.00;;;;;;;19.93;88.49;97954.32;106465;1276;22570;-79
2022/08/17 06:13:53;;;;;;;36.30;23.10;;;;;;;20.03;88.51;97954.33;106194;1278;139837;-80
2022/08/17 06:16:25;;;;;;;31.30;24.70;;;;;;;20.13;88.27;97957.02;106373;1277;24847;-79
2022/08/17 06:18:59;;;;;;;32.30;23.80;;;;;;;20.21;87.99;97958.94;106268;1277;139053;-79
2022/08/17 06:21:33;;;;;;;33.10;24.30;;;;;;;20.28;87.69;97960.15;106414;1277;24296;-79
2022/08/17 06:24:18;;;;;;;35.10;24.60;;;;;;;20.37;87.45;97957.05;106101;1277;25312;-81
2022/08/17 06:26:47;;;;;;;32.70;22.70;;;;;;;20.46;87.50;97955.30;106457;1276;22674;-82
2022/08/17 06:29:36;;;;;;;32.30;23.40;;;;;;;20.55;87.44;97956.12;106565;1276;24286;-81
2022/08/17 06:32:07;;;;;;;33.40;23.00;;;;;;;20.65;86.95;97952.80;106018;1276;139216;-81
2022/08/17 06:34:36;;;;;;;31.20;25.00;;;;;;;20.73;86.42;97951.35;106606;1276;22572;-83
2022/08/17 06:37:18;;;;;;;36.70;24.10;;;;;;;20.81;86.25;97956.33;106448;1277;139866;-81
2022/08/17 06:39:51;;;;;;;31.00;21.50;;;;;;;20.91;85.98;97953.20;106691;1277;22572;-81
2022/08/17 06:42:43;;;;;;;28.50;21.90;;;;;;;21.00;85.94;97952.14;106406;1277;138884;-79
2022/08/17 06:45:18;;;;;;;32.60;21.70;;;;;;;21.12;85.44;97954.09;106572;1277;22658;-79
2022/08/17 06:47:52;;;;;;;29.60;20.70;;;;;;;21.22;85.11;97952.84;106437;1276;22550;-78
2022/08/17 06:50:35;;;;;;;29.40;20.70;;;;;;;21.32;84.85;97950.11;106355;1276;139171;-80
2022/08/17 06:53:14;;;;;;;29.70;21.20;;;;;;;21.44;84.47;97953.05;106711;1276;22561;-79
2022/08/17 06:55:57;;;;;;;30.80;20.40;;;;;;;21.55;84.28;97952.84;106271;1276;139609;-79
2022/08/17 06:58:30;;;;;;;26.00;20.40;;;;;;;21.65;83.93;97951.05;106290;1276;22574;-79
2022/08/17 07:01:02;;;;;;;31.00;20.00;;;;;;;21.76;83.55;97954.73;106381;1277;139589;-79
2022/08/17 07:03:36;;;;;;;30.00;19.10;;;;;;;21.86;83.29;97958.09;106249;1277;24217;-78
2022/08/17 07:06:13;;;;;;;26.10;20.40;;;;;;;21.96;83.17;97964.70;106458;1277;22564;-78
2022/08/17 07:08:57;;;;;;;28.60;19.70;;;;;;;22.06;82.99;97963.77;106055;1276;24436;-79
2022/08/17 07:11:52;;;;;;;27.00;20.10;;;;;;;22.18;82.66;97965.13;105998;1277;25322;-78
2022/08/17 07:14:40;;;;;;;27.20;19.20;;;;;;;22.32;82.43;97964.21;106179;1279;138424;-78
2022/08/17 07:17:26;;;;;;;32.20;19.40;;;;;;;22.46;81.98;97963.41;106682;1276;22574;-79
2022/08/17 07:20:04;;;;;;;28.30;19.80;;;;;;;22.58;81.35;97964.19;106237;1277;138696;-77
2022/08/17 07:22:53;;;;;;;32.50;19.20;;;;;;;22.70;81.24;97962.27;106373;1277;22562;-80
2022/08/17 07:25:20;;;;;;;;;;;;;;;22.84;80.92;97962.98;107059;1276;139088;-80
2022/08/17 07:27:51;;;;;;;24.40;17.60;;;;;;;22.94;80.53;97959.77;106919;1277;24305;-79
2022/08/17 07:30:34;;;;;;;25.90;17.90;;;;;;;23.07;80.35;97958.77;106441;1277;138865;-79
2022/08/17 07:33:10;;;;;;;25.80;17.70;;;;;;;23.22;80.17;97961.70;106769;1277;23370;-79
2022/08/17 07:35:42;;;;;;;27.70;17.80;;;;;;;23.35;79.30;97960.27;106457;1277;22552;-78
2022/08/17 07:38:15;;;;;;;31.80;18.50;;;;;;;23.48;78.76;97960.89;106096;1277;139563;-78
2022/08/17 07:41:03;;;;;;;26.60;17.50;;;;;;;23.61;78.34;97959.29;106721;1277;22604;-77
2022/08/17 07:43:42;;;;;;;25.60;18.00;;;;;;;23.73;77.65;97958.21;106155;1277;138779;-78
2022/08/17 07:49:02;;;;;;;24.90;17.40;;;;;;;24.00;77.13;97952.86;105974;1276;138726;-79
2022/08/17 07:51:32;;;;;;;27.10;17.20;;;;;;;24.13;76.93;97950.97;106226;1276;22566;-79
2022/08/17 07:54:21;;;;;;;26.30;18.00;;;;;;;24.26;76.94;97951.65;106195;1279;23444;-79
2022/08/17 07:57:13;;;;;;;27.70;16.70;;;;;;;24.43;75.92;97949.33;106353;1276;25273;-79
2022/08/17 07:59:58;;;;;;;25.70;17.90;;;;;;;24.56;75.74;97951.34;106621;1276;23077;-79
2022/08/17 08:03:28;;;;;;;26.90;17.00;;;;;;;24.77;75.70;97953.50;106429;1277;22569;-79
2022/08/17 08:06:02;;;;;;;25.40;16.40;;;;;;;24.97;74.27;97955.29;106758;1277;22632;-78
2022/08/17 08:08:43;;;;;;;24.10;16.20;;;;;;;25.13;74.15;97947.87;106418;1277;25308;-78
2022/08/17 08:11:28;;;;;;;27.20;16.30;;;;;;;25.33;73.45;97944.64;106960;1274;22660;-78
2022/08/17 08:14:32;;;;;;;24.70;15.90;;;;;;;25.51;72.83;97946.98;106934;1277;139012;-78
2022/08/17 08:17:58;;;;;;;22.40;16.00;;;;;;;25.72;71.95;97946.80;106457;1276;23154;-78
2022/08/17 08:20:50;;;;;;;23.00;15.70;;;;;;;25.94;71.51;97949.38;106715;1277;31508;-78
2022/08/17 08:23:41;;;;;;;20.00;14.70;;;;;;;26.13;70.73;97947.87;106261;1277;22700;-77
2022/08/17 08:26:25;;;;;;;24.90;15.20;;;;;;;26.29;69.80;97949.77;105856;1277;138483;-78
2022/08/17 08:29:03;;;;;;;21.70;15.40;;;;;;;26.44;69.45;97944.00;106243;1276;24340;-78
2022/08/17 08:31:39;;;;;;;;;;;;;;;26.58;68.72;97937.14;105717;1276;139607;-78
2022/08/17 08:34:15;;;;;;;17.80;15.20;;;;;;;26.75;68.57;97935.94;106158;1276;22587;-78
2022/08/17 08:36:49;;;;;;;25.20;15.00;;;;;;;26.95;67.73;97938.27;106003;1274;138210;-77
2022/08/17 08:39:54;;;;;;;24.70;15.60;;;;;;;27.00;67.43;97935.61;105842;1278;22560;-78
2022/08/17 08:43:01;;;;;;;20.80;16.00;;;;;;;27.06;67.23;97937.55;106650;1277;137874;-78
2022/08/17 08:46:16;;;;;;;21.80;16.50;;;;;;;26.99;66.04;97939.95;106120;1277;22662;-78
2022/08/17 08:49:31;;;;;;;19.60;14.00;;;;;;;26.86;66.03;97941.77;106259;1277;138812;-78
2022/08/17 08:52:32;;;;;;;15.20;12.00;;;;;;;26.85;64.53;97942.38;106389;1274;31811;-78
2022/08/17 08:55:33;;;;;;;18.20;11.00;;;;;;;26.91;61.88;97940.42;106032;1277;139030;-78
2022/08/17 08:58:09;;;;;;;15.00;11.50;;;;;;;26.90;60.01;97938.27;106452;1277;24225;-76
2022/08/17 09:00:43;;;;;;;15.00;12.00;;;;;;;26.94;59.72;97938.02;106260;1277;138415;-79
2022/08/17 09:03:26;;;;;;;12.30;10.70;;;;;;;27.19;59.81;97934.48;106303;1277;22643;-80
2022/08/17 09:06:20;;;;;;;11.50;10.40;;;;;;;27.48;58.67;97932.19;106147;1277;22577;-80
2022/08/17 09:09:16;;;;;;;13.80;11.00;;;;;;;27.73;57.78;97932.63;106072;1277;22634;-80
2022/08/17 09:12:20;;;;;;;17.20;11.60;;;;;;;27.67;57.34;97933.27;106232;1277;22564;-82
2022/08/17 09:15:02;;;;;;;12.40;11.00;;;;;;;27.56;58.34;97934.16;106163;1277;22570;-78
2022/08/17 09:17:48;;;;;;;15.40;12.00;;;;;;;27.50;57.36;97936.62;106156;1277;24437;-79
2022/08/17 09:20:15;;;;;;;13.50;12.10;;;;;;;27.53;56.97;97939.95;106242;1278;137907;-82
2022/08/17 09:22:51;;;;;;;13.80;12.10;;;;;;;27.67;57.47;97939.57;106278;1277;29800;-79
2022/08/17 09:25:25;;;;;;;14.60;11.70;;;;;;;27.88;55.67;97938.76;106421;1277;138777;-79
2022/08/17 09:28:18;;;;;;;14.50;12.30;;;;;;;28.14;55.18;97936.65;106826;1276;25369;-79
2022/08/17 09:30:55;;;;;;;15.20;13.00;;;;;;;28.30;54.87;97940.75;106328;1277;138344;-79
2022/08/17 09:33:26;;;;;;;13.80;11.60;;;;;;;28.23;54.21;97941.04;107149;1277;22573;-79
2022/08/17 09:36:15;;;;;;;15.80;11.20;;;;;;;28.04;53.95;97939.21;106671;1277;22709;-79
2022/08/17 09:38:47;;;;;;;12.50;11.20;;;;;;;27.84;54.49;97939.80;107136;1277;22720;-78
2022/08/17 09:41:19;;;;;;;12.90;11.50;;;;;;;27.86;55.27;97940.88;106439;1277;23437;-79
2022/08/17 09:44:04;;;;;;;13.90;11.10;;;;;;;28.10;55.66;97941.39;106236;1277;138548;-81
2022/08/17 09:46:34;;;;;;;14.00;11.10;;;;;;;28.39;54.50;97943.84;105907;1278;22580;-80
2022/08/17 09:49:13;;;;;;;15.20;11.00;;;;;;;28.66;54.52;97947.00;106556;1277;138428;-77
2022/08/17 09:51:48;;;;;;;11.90;10.10;;;;;;;28.97;53.21;97945.43;106668;1277;22864;-78
2022/08/17 09:54:34;;;;;;;11.80;9.80;;;;;;;29.27;52.07;97945.28;106474;1277;138055;-78
2022/08/17 09:57:25;;;;;;;13.50;10.40;;;;;;;29.58;50.87;97943.30;106595;1277;23072;-78
2022/08/17 10:02:58;;;;;;;15.60;10.70;;;;;;;29.90;49.20;97945.26;106193;1277;23420;-79
2022/08/17 10:05:45;;;;;;;15.50;10.20;;;;;;;29.68;49.68;97946.14;106856;1277;22643;-78
2022/08/17 10:08:28;;;;;;;12.50;10.40;;;;;;;29.43;50.42;97947.70;105905;1277;138054;-81
2022/08/17 10:11:04;;;;;;;14.40;9.60;;;;;;;29.18;49.62;97948.75;106267;1277;22581;-80
2022/08/17 10:13:55;;;;;;;13.50;9.10;;;;;;;28.95;50.14;97949.02;106157;1277;137572;-79
2022/08/17 10:16:27;;;;;;;12.20;9.40;;;;;;;28.83;50.67;97948.44;106360;1277;22556;-79
2022/08/17 10:19:08;;;;;;;12.10;9.50;;;;;;;29.00;50.99;97941.79;106357;1277;137705;-79
2022/08/17 10:27:20;;;;;;;13.10;9.20;;;;;;;29.56;49.82;97948.34;106429;1277;22541;-78
2022/08/17 10:29:54;;;;;;;12.40;9.60;;;;;;;29.48;50.27;97945.99;106535;1277;23273;-79
2022/08/17 10:32:31;;;;;;;10.10;9.00;;;;;;;29.39;50.22;97945.58;106063;1278;138183;-79
2022/08/17 10:35:15;;;;;;;12.30;9.40;;;;;;;29.31;50.18;97943.23;106914;1277;23301;-78
2022/08/17 10:37:48;;;;;;;12.10;9.40;;;;;;;29.26;50.10;97947.34;106528;1277;138267;-79
2022/08/17 10:40:26;;;;;;;14.40;10.40;;;;;;;29.21;49.61;97951.53;106815;1277;22560;-78
2022/08/17 10:43:28;;;;;;;15.50;10.10;;;;;;;29.08;50.09;97952.70;106921;1277;138979;-79
2022/08/17 10:46:16;;;;;;;11.30;9.60;;;;;;;28.96;50.17;97953.75;106275;1278;24322;-79
2022/08/17 10:49:13;;;;;;;12.90;9.40;;;;;;;28.84;50.20;97949.25;106680;1277;138054;-78
2022/08/17 10:51:51;;;;;;;11.80;9.10;;;;;;;28.72;50.04;97947.89;106347;1275;22595;-79
2022/08/17 10:54:29;;;;;;;11.90;9.30;;;;;;;28.63;50.75;97956.32;106036;1277;138352;-78
2022/08/17 10:56:58;;;;;;;14.50;8.70;;;;;;;28.57;50.55;97956.48;106340;1277;25350;-77
2022/08/17 10:59:37;;;;;;;10.90;8.20;;;;;;;28.50;50.17;97953.38;106108;1277;22598;-78
2022/08/17 11:02:09;;;;;;;11.00;8.30;;;;;;;28.55;50.77;97953.40;106053;1277;137744;-76
2022/08/17 11:05:10;;;;;;;12.20;8.70;;;;;;;28.81;51.38;97948.42;105794;1278;22560;-76
2022/08/17 11:08:05;;;;;;;12.80;8.70;;;;;;;29.24;51.69;97953.24;106189;1277;137617;-75
2022/08/17 11:10:53;;;;;;;10.20;7.90;;;;;;;29.65;50.26;97950.67;106029;1277;25097;-76
2022/08/17 11:13:47;;;;;;;10.70;7.90;;;;;;;29.98;47.98;97938.02;105953;1277;138449;-76
2022/08/17 11:16:28;;;;;;;13.20;8.90;;;;;;;30.32;47.22;97931.33;105938;1278;22554;-77
2022/08/17 11:19:11;;;;;;;10.80;8.60;;;;;;;30.58;46.72;97926.14;105987;1277;138323;-77
2022/08/17 11:22:05;;;;;;;11.60;7.90;;;;;;;30.90;46.64;97920.95;105969;1278;22554;-77
2022/08/17 11:24:50;;;;;;;11.50;9.10;;;;;;;31.16;45.37;97924.30;105919;1277;138830;-78
2022/08/17 11:27:26;;;;;;;10.30;8.20;;;;;;;31.09;44.23;97925.16;106128;1278;22844;-77
2022/08/17 11:30:10;;;;;;;8.80;7.80;;;;;;;30.70;44.59;97920.59;105954;1277;22556;-77
2022/08/17 11:32:51;;;;;;;10.50;8.80;;;;;;;30.22;45.01;97924.09;105923;1277;138130;-77
2022/08/17 11:35:21;;;;;;;16.30;8.80;;;;;;;29.89;46.32;97923.98;106018;1277;24271;-76
2022/08/17 11:38:07;;;;;;;15.00;9.00;;;;;;;29.96;47.81;97924.14;106181;1277;138182;-76
2022/08/17 11:40:37;;;;;;;12.40;8.40;;;;;;;30.26;45.48;97921.95;106013;1278;25289;-77
2022/08/17 11:43:22;;;;;;;8.10;7.30;;;;;;;30.48;45.04;97920.71;106082;1276;137936;-77
2022/08/17 11:45:55;;;;;;;8.30;7.30;;;;;;;30.72;44.61;97926.23;106048;1278;29827;-78
2022/08/17 11:51:44;;;;;;;11.50;8.00;;;;;;;31.13;44.32;97922.35;106381;1277;22531;-76
2022/08/17 11:54:32;;;;;;;8.40;7.50;;;;;;;31.29;41.88;97922.65;106285;1277;22589;-77
2022/08/17 11:57:26;;;;;;;8.70;7.30;;;;;;;31.43;42.31;97920.44;105977;1277;22563;-77
2022/08/17 11:59:57;;;;;;;8.70;7.60;;;;;;;31.54;41.55;97917.77;106053;1278;25424;-77
2022/08/17 12:02:29;;;;;;;9.30;7.70;;;;;;;31.59;42.85;97915.77;105724;1278;138623;-77
2022/08/17 12:05:13;;;;;;;10.00;7.40;;;;;;;31.72;42.58;97911.13;105921;1278;25463;-76
2022/08/17 12:07:45;;;;;;;8.20;7.30;;;;;;;31.74;41.80;97909.20;106248;1277;137886;-77
2022/08/17 12:10:16;;;;;;;10.30;7.40;;;;;;;31.54;41.24;97916.09;106185;1276;22541;-77
2022/08/17 12:12:44;;;;;;;8.00;7.20;;;;;;;31.48;41.30;97909.55;106253;1277;138463;-77
2022/08/17 12:15:29;;;;;;;7.40;6.00;;;;;;;31.37;41.87;97914.89;105925;1277;23946;-78
2022/08/17 12:17:56;;;;;;;8.70;7.10;;;;;;;31.40;40.10;97915.06;106153;1278;25349;-77